Time;durP1;ratioP1;P1;durP2;ratioP2;P2;SDS_P1;SDS_P2;PMS_P1;PMS_P2;Temp;Humidity;BMP_temperature;BMP_pressure;BME280_temperature;BME280_humidity;BME280_pressure;Samples;Min_cycle;Max_cycle;Signal;HPM_P1;HPM_P2
2022/11/07 00:01:48;;;;;;;22.95;17.48;;;;;;;1.87;86.77;100315.16;5004861;28;20057;-66
2022/11/07 00:04:14;;;;;;;22.67;16.75;;;;;;;1.93;86.37;100311.03;5004985;28;20030;-65
2022/11/07 00:06:40;;;;;;;24.35;18.63;;;;;;;1.93;86.25;100313.59;5005044;28;20030;-65
2022/11/07 00:09:06;;;;;;;23.17;17.30;;;;;;;1.93;86.36;100314.44;5005057;28;20054;-65
2022/11/07 00:11:32;;;;;;;22.85;17.77;;;;;;;2.03;86.28;100315.53;5004785;28;20295;-65
2022/11/07 00:13:58;;;;;;;24.30;17.52;;;;;;;2.02;86.36;100307.00;5004342;28;20027;-64
2022/11/07 00:16:25;;;;;;;25.02;18.27;;;;;;;1.95;85.96;100311.94;5004606;28;20094;-65
2022/11/07 00:18:51;;;;;;;26.10;18.55;;;;;;;1.94;86.14;100317.84;5004753;28;20030;-65
2022/11/07 00:21:17;;;;;;;25.83;17.73;;;;;;;1.88;86.60;100321.13;5004704;28;20218;-65
2022/11/07 00:23:43;;;;;;;22.52;17.67;;;;;;;2.00;86.46;100311.22;5003829;28;20045;-65
2022/11/07 00:26:13;;;;;;;24.63;19.05;;;;;;;1.88;86.48;100300.69;5003307;28;20034;-66
2022/11/07 00:28:41;;;;;;;28.33;19.15;;;;;;;1.82;86.82;100286.09;5004439;28;20081;-66
2022/11/07 00:31:09;;;;;;;24.90;18.13;;;;;;;1.86;87.14;100303.22;5004737;28;20252;-65
2022/11/07 00:33:35;;;;;;;23.38;18.83;;;;;;;1.94;86.89;100294.88;5004322;28;20057;-65
2022/11/07 00:36:00;;;;;;;24.45;18.30;;;;;;;2.01;87.05;100305.28;5004548;28;20030;-65
2022/11/07 00:38:26;;;;;;;28.10;18.88;;;;;;;2.03;86.54;100295.09;5004309;28;20030;-65
2022/11/07 00:40:56;;;;;;;24.35;17.98;;;;;;;2.14;86.60;100303.88;5004491;28;20085;-66
2022/11/07 00:43:22;;;;;;;23.38;18.08;;;;;;;2.05;86.83;100290.88;5003967;28;20337;-65
2022/11/07 00:45:48;;;;;;;24.48;18.20;;;;;;;2.14;86.74;100297.88;5004437;28;20033;-65
2022/11/07 00:48:13;;;;;;;25.40;18.88;;;;;;;2.09;87.30;100285.00;5003987;28;20026;-65
2022/11/07 00:50:39;;;;;;;23.55;17.10;;;;;;;2.14;87.27;100283.44;5003959;28;20030;-65
2022/11/07 00:53:05;;;;;;;26.25;18.77;;;;;;;1.93;86.96;100280.41;5004090;28;20080;-66
2022/11/07 00:55:32;;;;;;;25.50;19.00;;;;;;;2.00;87.86;100272.03;5003849;28;20354;-65
2022/11/07 00:57:57;;;;;;;29.20;20.13;;;;;;;1.98;88.15;100271.13;5004057;28;20326;-65
2022/11/07 01:00:23;;;;;;;28.77;20.48;;;;;;;2.02;87.88;100276.38;5003710;28;20074;-66
2022/11/07 01:05:09;;;;;;;30.92;21.38;;;;;;;2.01;87.52;100268.63;5003974;28;20038;-66
2022/11/07 01:05:34;;;;;;;25.08;18.75;;;;;;;2.07;87.75;100267.09;5003839;28;20791;-65
2022/11/07 01:08:00;;;;;;;28.92;21.10;;;;;;;2.14;87.74;100268.09;5002829;28;20076;-66
2022/11/07 01:10:26;;;;;;;30.60;21.20;;;;;;;2.21;87.41;100261.44;5003546;28;20018;-65
2022/11/07 01:12:51;;;;;;;25.85;18.58;;;;;;;2.21;87.50;100259.75;5003885;28;20026;-65
2022/11/07 01:15:17;;;;;;;28.80;20.52;;;;;;;2.11;87.23;100257.81;5003773;28;20029;-66
2022/11/07 01:17:42;;;;;;;26.80;18.60;;;;;;;2.15;87.54;100254.50;5002534;28;20157;-65
2022/11/07 01:20:09;;;;;;;27.75;20.48;;;;;;;2.13;87.57;100253.59;5003705;28;20049;-66
2022/11/07 01:22:34;;;;;;;27.98;20.27;;;;;;;2.19;87.40;100245.19;5004446;28;20050;-66
2022/11/07 01:25:00;;;;;;;28.05;20.00;;;;;;;2.06;87.97;100237.25;5004022;28;20034;-65
2022/11/07 01:27:26;;;;;;;24.85;18.85;;;;;;;2.10;87.65;100237.34;5002077;28;20026;-66
2022/11/07 01:29:51;;;;;;;26.35;19.35;;;;;;;2.10;87.99;100240.75;5003701;28;20026;-65
2022/11/07 01:32:17;;;;;;;25.75;18.33;;;;;;;2.09;87.87;100243.28;5002577;28;20046;-65
2022/11/07 01:34:43;;;;;;;27.02;19.70;;;;;;;2.04;88.32;100240.63;5001653;28;20053;-65
2022/11/07 01:37:08;;;;;;;28.92;20.42;;;;;;;2.05;88.35;100238.09;5003709;28;20053;-65
2022/11/07 01:39:34;;;;;;;25.52;19.48;;;;;;;2.07;88.05;100228.78;5003236;28;20031;-65
2022/11/07 01:42:00;;;;;;;28.02;20.73;;;;;;;1.98;88.40;100225.16;5002282;28;20022;-65
2022/11/07 01:44:26;;;;;;;27.25;19.58;;;;;;;1.95;89.05;100228.50;5011710;28;20214;-64
2022/11/07 01:46:56;;;;;;;26.33;19.33;;;;;;;1.97;88.81;100210.69;5002732;28;20086;-65
2022/11/07 01:49:27;;;;;;;27.30;19.88;;;;;;;2.00;88.89;100226.06;5012288;28;20032;-64
2022/11/07 01:52:10;;;;;;;27.38;19.80;;;;;;;1.94;89.39;100228.47;5010436;28;20021;-64
2022/11/07 01:54:46;;;;;;;23.13;17.15;;;;;;;1.94;89.15;100206.34;5015269;28;20053;-65
2022/11/07 01:57:24;;;;;;;28.30;18.38;;;;;;;1.98;88.67;100209.81;4984136;28;20530;-64
2022/11/07 01:59:53;;;;;;;24.63;17.80;;;;;;;2.09;89.08;100230.50;4987727;28;20068;-65
2022/11/07 02:02:18;;;;;;;26.13;18.10;;;;;;;2.19;88.34;100225.59;5003029;28;20054;-65
2022/11/07 02:04:45;;;;;;;23.90;17.45;;;;;;;2.26;88.63;100223.22;5015080;28;20038;-65
2022/11/07 02:07:19;;;;;;;25.67;18.80;;;;;;;2.13;88.69;100220.38;5015896;28;20089;-65
2022/11/07 02:09:45;;;;;;;27.55;19.13;;;;;;;2.19;88.45;100210.28;5003308;28;20234;-65
2022/11/07 02:12:12;;;;;;;25.15;18.35;;;;;;;2.25;88.78;100219.75;5003574;28;20066;-66
2022/11/07 02:14:37;;;;;;;25.52;18.20;;;;;;;2.26;88.55;100210.44;5002698;28;20049;-65
2022/11/07 02:17:04;;;;;;;26.48;17.30;;;;;;;2.20;88.68;100206.91;5003505;28;20031;-65
2022/11/07 02:19:39;;;;;;;23.80;18.83;;;;;;;2.18;88.54;100193.25;5002890;28;20061;-65
2022/11/07 02:22:25;;;;;;;24.77;17.85;;;;;;;2.09;88.95;100177.72;4989698;28;20045;-65
2022/11/07 02:24:56;;;;;;;23.27;18.20;;;;;;;2.09;88.74;100193.03;4988187;28;20081;-65
2022/11/07 02:27:24;;;;;;;23.45;17.17;;;;;;;2.19;88.93;100202.63;5002824;28;20045;-65
2022/11/07 02:29:56;;;;;;;24.42;18.15;;;;;;;2.06;89.00;100187.88;5003331;28;20034;-65
2022/11/07 02:32:22;;;;;;;25.10;18.38;;;;;;;2.22;89.14;100200.16;5003033;28;20054;-64
2022/11/07 02:35:02;;;;;;;26.60;19.08;;;;;;;2.11;89.44;100183.72;5003129;28;20045;-65
2022/11/07 02:37:36;;;;;;;27.50;19.08;;;;;;;2.05;89.61;100186.13;5003283;28;20026;-65
2022/11/07 02:40:08;;;;;;;24.05;18.35;;;;;;;2.14;89.37;100180.34;5003030;28;20076;-66
2022/11/07 02:42:42;;;;;;;25.02;18.67;;;;;;;2.20;89.03;100180.50;5002881;28;20307;-65
2022/11/07 02:45:13;;;;;;;23.25;17.77;;;;;;;2.35;88.94;100195.28;5003045;28;20184;-65
2022/11/07 02:47:39;;;;;;;26.88;20.23;;;;;;;2.30;89.18;100191.78;5006242;28;20307;-66
2022/11/07 02:50:10;;;;;;;24.63;18.33;;;;;;;2.30;88.43;100181.56;5006411;28;20080;-66
2022/11/07 02:52:36;;;;;;;25.20;18.25;;;;;;;2.42;88.58;100192.00;5006485;28;20377;-65
2022/11/07 02:55:04;;;;;;;25.30;18.23;;;;;;;2.27;88.65;100190.03;5006420;28;20030;-65
2022/11/07 02:57:30;;;;;;;23.45;17.30;;;;;;;2.29;89.99;100187.50;5006258;28;20064;-66
2022/11/07 02:59:56;;;;;;;25.08;18.17;;;;;;;2.21;89.43;100187.34;5001356;28;20038;-64
2022/11/07 03:02:23;;;;;;;24.52;18.08;;;;;;;2.35;89.67;100185.94;5002733;28;20038;-65
2022/11/07 03:04:48;;;;;;;21.77;16.63;;;;;;;2.30;89.30;100186.66;5006282;28;20338;-65
2022/11/07 03:07:14;;;;;;;26.08;17.58;;;;;;;2.33;88.94;100190.13;5006269;28;20041;-65
2022/11/07 03:09:39;;;;;;;23.00;17.13;;;;;;;2.41;88.96;100187.75;5005686;28;20034;-66
2022/11/07 03:12:05;;;;;;;24.17;17.95;;;;;;;2.42;89.30;100186.88;5006133;28;20027;-65
2022/11/07 03:14:31;;;;;;;24.55;17.17;;;;;;;2.46;88.92;100186.13;5005851;28;20038;-67
2022/11/07 03:16:56;;;;;;;18.92;15.00;;;;;;;2.47;88.85;100177.63;5005940;28;20041;-65
2022/11/07 03:19:22;;;;;;;20.15;15.75;;;;;;;2.53;88.69;100180.28;5005851;28;20326;-65
2022/11/07 03:21:51;;;;;;;23.95;17.13;;;;;;;2.54;88.80;100174.34;5005679;28;20046;-66
2022/11/07 03:24:17;;;;;;;22.50;14.95;;;;;;;2.29;89.12;100162.78;5022565;28;20037;-65
2022/11/07 03:26:42;;;;;;;20.35;15.80;;;;;;;2.37;89.09;100168.06;5006387;28;20032;-66
2022/11/07 03:29:09;;;;;;;19.63;15.05;;;;;;;2.40;89.46;100168.97;5005481;28;20030;-65
2022/11/07 03:31:35;;;;;;;19.90;14.25;;;;;;;2.39;88.78;100156.16;5004398;28;20026;-66
2022/11/07 03:34:00;;;;;;;21.77;15.80;;;;;;;2.49;89.36;100160.63;5005654;28;20089;-65
2022/11/07 03:36:26;;;;;;;22.05;15.93;;;;;;;2.52;88.71;100153.03;5005488;28;20094;-65
2022/11/07 03:38:52;;;;;;;21.08;15.05;;;;;;;2.64;88.29;100156.66;5005869;28;20089;-65
2022/11/07 03:41:17;;;;;;;20.50;14.85;;;;;;;2.56;88.25;100148.81;5005454;28;20064;-65
2022/11/07 03:43:46;;;;;;;19.20;13.60;;;;;;;2.56;88.70;100157.34;5005350;28;20103;-65
2022/11/07 03:46:13;;;;;;;19.17;14.27;;;;;;;2.45;88.64;100157.97;5003970;28;20188;-66
2022/11/07 03:48:39;;;;;;;16.73;13.52;;;;;;;2.64;88.43;100157.50;5005116;28;20033;-65
2022/11/07 03:51:07;;;;;;;18.77;14.50;;;;;;;2.71;88.37;100158.47;5005521;28;20026;-65
2022/11/07 03:53:33;;;;;;;19.17;14.52;;;;;;;2.67;88.64;100164.38;5005143;28;20033;-65
2022/11/07 03:55:59;;;;;;;15.95;12.68;;;;;;;2.74;88.18;100155.97;5005298;28;20030;-65
2022/11/07 03:58:25;;;;;;;18.08;13.40;;;;;;;2.58;88.06;100157.41;5004912;28;20065;-66
2022/11/07 04:00:50;;;;;;;17.00;12.65;;;;;;;2.70;88.58;100166.97;5004741;28;20030;-66
2022/11/07 04:03:16;;;;;;;17.98;13.68;;;;;;;2.72;87.84;100160.19;5004472;28;20028;-66
2022/11/07 04:05:42;;;;;;;17.20;12.93;;;;;;;2.56;88.47;100174.38;5004786;28;20222;-66
2022/11/07 04:08:07;;;;;;;17.70;12.85;;;;;;;2.55;88.67;100167.53;5004994;28;20570;-66
2022/11/07 04:10:33;;;;;;;15.95;12.82;;;;;;;2.67;89.11;100166.94;5004680;28;20117;-66
2022/11/07 04:18:28;;;;;;;17.88;13.15;;;;;;;2.59;88.79;100159.97;5004363;28;20069;-66
2022/11/07 04:20:54;;;;;;;15.57;12.77;;;;;;;2.58;88.78;100167.63;5003556;28;20030;-67
2022/11/07 04:23:19;;;;;;;16.65;12.93;;;;;;;2.56;89.05;100169.28;5013420;28;20040;-67
2022/11/07 04:28:29;;;;;;;17.48;13.05;;;;;;;2.75;88.66;100165.34;5006841;28;20057;-65
2022/11/07 04:30:55;;;;;;;16.95;12.88;;;;;;;2.70;88.69;100172.09;5007619;28;20046;-66
2022/11/07 04:33:20;;;;;;;17.48;12.73;;;;;;;2.80;88.46;100168.88;5022416;28;20025;-66
2022/11/07 04:35:46;;;;;;;17.73;13.23;;;;;;;2.74;88.55;100173.88;5005241;28;20258;-65
2022/11/07 04:38:11;;;;;;;19.02;13.63;;;;;;;2.66;88.71;100165.19;5004287;28;20027;-65
2022/11/07 04:40:37;;;;;;;16.83;13.13;;;;;;;2.68;88.95;100174.63;5004295;28;20026;-65
2022/11/07 04:43:07;;;;;;;16.77;12.80;;;;;;;2.77;88.40;100176.50;5004320;28;20426;-65
2022/11/07 04:45:37;;;;;;;17.65;12.98;;;;;;;2.82;88.43;100191.91;5003991;28;20130;-64
2022/11/07 04:48:04;;;;;;;16.73;12.52;;;;;;;2.79;89.16;100179.91;5003937;28;20054;-65
2022/11/07 04:50:30;;;;;;;18.20;12.70;;;;;;;2.79;88.08;100172.25;5004205;28;20093;-64
2022/11/07 04:52:55;;;;;;;16.08;12.35;;;;;;;2.69;88.29;100168.66;5003892;28;20054;-64
2022/11/07 04:55:25;;;;;;;19.70;13.27;;;;;;;2.74;88.64;100164.50;5011078;28;20052;-63
2022/11/07 04:57:51;;;;;;;15.18;11.75;;;;;;;2.78;88.52;100164.56;5020654;28;20062;-64
2022/11/07 05:00:18;;;;;;;18.80;13.02;;;;;;;2.76;88.57;100165.41;5003426;28;20030;-64
2022/11/07 05:02:45;;;;;;;17.52;12.75;;;;;;;2.73;88.66;100165.31;5003613;28;20093;-63
2022/11/07 05:05:11;;;;;;;18.10;12.85;;;;;;;2.75;88.96;100162.78;5004111;28;20093;-65
2022/11/07 05:07:38;;;;;;;19.00;13.13;;;;;;;2.78;88.66;100164.56;5003445;28;20030;-64
2022/11/07 05:10:06;;;;;;;16.52;12.55;;;;;;;2.76;88.47;100174.75;5003327;28;20048;-65
2022/11/07 05:12:31;;;;;;;16.30;11.57;;;;;;;2.69;88.71;100162.69;5003573;28;20083;-63
2022/11/07 05:14:57;;;;;;;16.30;11.82;;;;;;;2.75;88.89;100163.69;5004265;28;20141;-63
2022/11/07 05:17:23;;;;;;;14.73;11.38;;;;;;;2.72;88.42;100157.63;5003415;28;20305;-64
2022/11/07 05:19:49;;;;;;;17.23;11.68;;;;;;;2.79;88.03;100163.72;5003778;28;20034;-64
2022/11/07 05:24:59;;;;;;;16.52;12.00;;;;;;;2.91;88.09;100167.34;5019215;28;20045;-63
2022/11/07 05:27:24;;;;;;;18.33;11.82;;;;;;;2.90;88.19;100152.00;5003437;28;20036;-64
2022/11/07 05:29:50;;;;;;;18.98;12.98;;;;;;;2.87;88.29;100149.38;5004015;28;20043;-64
2022/11/07 05:32:16;;;;;;;13.63;10.82;;;;;;;3.00;87.73;100161.53;5003309;28;20326;-63
2022/11/07 05:34:42;;;;;;;15.75;11.70;;;;;;;2.93;87.27;100155.44;5003625;28;20038;-63
2022/11/07 05:37:09;;;;;;;14.63;11.75;;;;;;;2.98;87.34;100164.91;5003468;28;20085;-63
2022/11/07 05:39:35;;;;;;;13.30;11.13;;;;;;;3.10;87.04;100162.56;5003323;28;20081;-64
2022/11/07 05:42:01;;;;;;;14.48;11.02;;;;;;;3.05;87.52;100161.59;5003482;28;20038;-63
2022/11/07 05:44:27;;;;;;;15.98;10.40;;;;;;;3.10;87.44;100162.56;5003290;28;20026;-63
2022/11/07 05:46:54;;;;;;;14.98;10.02;;;;;;;3.02;87.37;100164.13;5003170;28;20310;-63
2022/11/07 05:49:19;;;;;;;13.70;11.00;;;;;;;3.02;87.33;100164.13;5003208;28;20093;-64
2022/11/07 05:51:45;;;;;;;12.25;9.73;;;;;;;3.08;87.07;100164.25;5003193;28;20031;-63
2022/11/07 05:54:11;;;;;;;13.00;9.88;;;;;;;2.90;87.17;100167.34;5003036;28;20034;-63
2022/11/07 05:56:37;;;;;;;11.85;9.32;;;;;;;2.89;87.15;100169.03;5020147;28;20092;-63
2022/11/07 05:59:04;;;;;;;11.55;9.38;;;;;;;2.94;87.27;100164.84;5010523;28;20230;-64
2022/11/07 06:01:29;;;;;;;11.00;9.10;;;;;;;2.94;87.04;100172.53;5003010;28;20079;-65
2022/11/07 06:03:55;;;;;;;10.82;8.77;;;;;;;3.01;86.98;100163.28;5002871;28;20090;-64
2022/11/07 06:06:21;;;;;;;12.00;9.05;;;;;;;3.03;86.60;100160.72;5003071;28;20042;-65
2022/11/07 06:08:46;;;;;;;13.68;9.93;;;;;;;3.10;86.57;100162.56;5003078;28;20056;-65
2022/11/07 06:11:12;;;;;;;13.95;9.98;;;;;;;2.83;86.87;100128.00;5003190;28;20022;-64
2022/11/07 06:13:38;;;;;;;11.38;9.48;;;;;;;3.00;87.25;100166.66;5003134;28;20341;-64
2022/11/07 06:16:04;;;;;;;11.30;8.50;;;;;;;2.89;87.64;100168.16;5002012;28;20307;-64
2022/11/07 06:18:30;;;;;;;11.40;8.82;;;;;;;2.92;86.87;100169.09;5003202;28;20033;-64
2022/11/07 06:20:56;;;;;;;11.52;8.93;;;;;;;2.99;87.72;100169.19;5018940;28;20042;-65
2022/11/07 06:23:21;;;;;;;11.13;8.63;;;;;;;3.05;86.19;100149.69;5007198;28;20029;-65
2022/11/07 06:25:50;;;;;;;12.05;9.25;;;;;;;3.21;86.92;100171.28;5007136;28;20026;-64
2022/11/07 06:28:15;;;;;;;12.05;9.23;;;;;;;3.20;86.29;100179.78;5001413;28;20211;-64
2022/11/07 06:30:41;;;;;;;11.90;9.52;;;;;;;3.27;86.45;100180.75;5001529;28;20042;-65
2022/11/07 06:33:11;;;;;;;12.27;8.23;;;;;;;3.16;85.23;100166.91;5006999;28;20030;-65
2022/11/07 06:35:37;;;;;;;10.23;8.70;;;;;;;3.26;86.15;100179.91;5006669;28;20093;-65
2022/11/07 06:38:05;;;;;;;11.85;8.80;;;;;;;3.12;85.77;100166.00;5006487;28;20049;-64
2022/11/07 06:40:31;;;;;;;12.38;9.10;;;;;;;3.33;85.89;100169.75;5006368;28;20085;-64
2022/11/07 06:44:40;;;;;;;12.35;9.20;;;;;;;3.25;85.81;100178.16;5058988;27;20650;-64
2022/11/07 06:47:06;;;;;;;12.18;8.90;;;;;;;3.20;86.47;100177.22;5060796;28;20036;-63
2022/11/07 06:49:32;;;;;;;14.57;9.90;;;;;;;3.18;86.92;100173.78;5060258;28;20048;-64
2022/11/07 06:51:57;;;;;;;13.32;9.63;;;;;;;3.31;86.22;100173.97;5060413;28;20059;-64
2022/11/07 06:54:23;;;;;;;12.05;9.45;;;;;;;3.37;86.00;100172.38;5060104;28;20029;-63
2022/11/07 06:56:48;;;;;;;13.52;9.48;;;;;;;3.36;86.38;100165.53;5058992;28;20040;-63
2022/11/07 06:59:14;;;;;;;15.48;9.43;;;;;;;3.41;85.71;100163.91;5052291;28;20395;-64
2022/11/07 07:01:39;;;;;;;11.60;9.40;;;;;;;3.38;85.79;100156.19;5057852;28;20032;-63
2022/11/07 07:04:05;;;;;;;12.00;8.20;;;;;;;3.36;85.83;100165.53;5056343;28;20306;-65
2022/11/07 07:06:31;;;;;;;12.52;8.98;;;;;;;3.41;85.43;100156.22;5040366;28;20028;-65
2022/11/07 07:08:56;;;;;;;12.85;9.50;;;;;;;3.21;86.54;100155.91;5059574;28;20297;-64
2022/11/07 07:11:22;;;;;;;13.30;8.80;;;;;;;3.41;86.17;100153.66;5045513;28;20045;-65
2022/11/07 07:13:48;;;;;;;11.45;8.65;;;;;;;3.40;86.29;100154.50;5049770;28;20325;-64
2022/11/07 07:16:13;;;;;;;12.68;9.48;;;;;;;3.47;86.37;100155.47;5070518;28;20045;-64
2022/11/07 07:18:39;;;;;;;11.93;9.13;;;;;;;3.45;85.53;100146.91;4969759;28;20054;-65
2022/11/07 07:21:10;;;;;;;12.25;8.75;;;;;;;3.51;85.66;100147.00;4774586;28;67436;-64
2022/11/07 07:23:37;;;;;;;12.40;9.02;;;;;;;3.59;85.04;100140.28;5051633;28;20048;-65
2022/11/07 07:26:10;;;;;;;11.38;8.70;;;;;;;3.57;84.80;100134.25;5040441;28;20045;-64
2022/11/07 07:28:36;;;;;;;12.02;8.75;;;;;;;3.59;84.74;100137.72;5033067;28;20332;-65
2022/11/07 07:31:13;;;;;;;12.15;9.05;;;;;;;3.72;84.08;100150.69;5039260;28;20026;-65
2022/11/07 07:33:45;;;;;;;11.65;9.57;;;;;;;3.77;84.57;100151.63;5039356;28;20056;-65
2022/11/07 07:36:11;;;;;;;12.38;9.13;;;;;;;3.54;85.18;100144.47;5024156;28;20128;-64
2022/11/07 07:38:37;;;;;;;11.65;8.75;;;;;;;3.60;84.52;100154.78;5023073;28;20037;-63
2022/11/07 07:41:03;;;;;;;10.93;8.13;;;;;;;3.73;84.18;100160.94;5019687;28;20093;-64
2022/11/07 07:43:29;;;;;;;10.18;8.25;;;;;;;3.62;84.90;100160.81;5026381;28;20061;-64
2022/11/07 07:46:00;;;;;;;10.10;8.32;;;;;;;3.75;83.84;100149.03;5037075;28;20033;-64
2022/11/07 07:48:26;;;;;;;11.57;9.07;;;;;;;3.85;84.36;100154.28;5022734;28;20089;-64
2022/11/07 07:50:52;;;;;;;12.55;8.88;;;;;;;3.84;84.47;100156.00;5019688;28;20034;-64
2022/11/07 07:53:18;;;;;;;10.90;8.90;;;;;;;3.79;84.60;100162.75;5035757;28;20120;-64
2022/11/07 07:55:43;;;;;;;11.52;8.73;;;;;;;3.77;83.93;100156.75;5027445;28;20124;-64
2022/11/07 07:58:10;;;;;;;13.13;9.05;;;;;;;3.84;84.35;100166.22;5026009;28;20045;-65
2022/11/07 08:00:36;;;;;;;12.13;8.93;;;;;;;3.82;83.66;100164.47;5025547;28;20373;-63
2022/11/07 08:03:12;;;;;;;9.68;7.85;;;;;;;3.84;84.28;100143.19;5025651;28;20034;-64
2022/11/07 08:05:38;;;;;;;12.05;8.77;;;;;;;3.98;83.71;100145.94;5009789;28;20311;-64
2022/11/07 08:08:06;;;;;;;12.30;9.32;;;;;;;3.99;83.77;100157.91;4982494;28;20034;-67
2022/11/07 08:10:32;;;;;;;11.82;7.68;;;;;;;4.01;83.70;100145.13;5052327;28;20044;-65
2022/11/07 08:12:58;;;;;;;11.57;9.40;;;;;;;4.00;83.21;100148.50;5041458;28;20041;-64
2022/11/07 08:15:23;;;;;;;13.50;9.65;;;;;;;4.03;83.89;100148.53;5045331;28;20191;-64
2022/11/07 08:17:49;;;;;;;13.32;10.02;;;;;;;4.04;83.27;100140.03;5027597;28;20076;-64
2022/11/07 08:20:23;;;;;;;13.77;8.95;;;;;;;3.90;83.28;100117.63;5031483;28;20025;-64
2022/11/07 08:22:49;;;;;;;11.88;9.40;;;;;;;4.05;83.49;100137.47;5034053;28;20220;-64
2022/11/07 08:25:14;;;;;;;13.40;9.35;;;;;;;4.08;82.89;100132.38;5060584;28;20025;-64
2022/11/07 08:27:40;;;;;;;11.70;8.48;;;;;;;4.14;82.65;100134.16;5044894;28;20021;-64
2022/11/07 08:30:07;;;;;;;11.18;8.68;;;;;;;4.13;82.06;100140.13;5029770;28;20237;-65
2022/11/07 08:32:32;;;;;;;10.48;8.50;;;;;;;4.02;83.37;100131.44;5044355;28;20222;-64
2022/11/07 08:34:58;;;;;;;10.52;8.88;;;;;;;3.97;83.68;100136.50;5033595;28;20056;-65
2022/11/07 08:37:24;;;;;;;11.00;8.55;;;;;;;4.02;82.40;100137.44;5034592;28;20056;-64
2022/11/07 08:39:49;;;;;;;10.48;8.57;;;;;;;3.95;83.28;100131.38;5026046;28;20034;-64
2022/11/07 08:42:15;;;;;;;11.77;9.20;;;;;;;4.03;83.29;100135.72;5044461;28;20034;-65
2022/11/07 08:44:41;;;;;;;12.90;9.48;;;;;;;4.18;83.51;100141.03;5034472;28;20033;-65
2022/11/07 08:47:07;;;;;;;12.18;9.18;;;;;;;4.22;82.54;100139.38;5035355;28;20474;-64
2022/11/07 08:49:33;;;;;;;13.57;8.63;;;;;;;4.21;82.49;100145.34;5030265;28;20033;-65
2022/11/07 08:52:00;;;;;;;12.02;9.05;;;;;;;4.23;82.53;100135.97;5032633;28;20014;-64
2022/11/07 08:54:27;;;;;;;11.10;8.68;;;;;;;4.07;83.05;100122.13;5037524;28;20318;-65
2022/11/07 08:56:53;;;;;;;14.40;9.90;;;;;;;4.29;83.14;100142.03;5028309;28;20026;-65
2022/11/07 08:59:19;;;;;;;11.35;8.98;;;;;;;4.17;83.12;100141.88;5029615;28;20110;-64
2022/11/07 09:01:44;;;;;;;9.85;8.70;;;;;;;4.26;83.30;100134.31;5026611;28;20030;-65
2022/11/07 09:04:10;;;;;;;13.00;10.13;;;;;;;4.41;83.25;100145.59;5025933;28;20025;-64
2022/11/07 09:06:35;;;;;;;12.40;9.02;;;;;;;4.42;82.48;100139.63;5023517;28;20049;-64
2022/11/07 09:09:01;;;;;;;13.07;9.48;;;;;;;4.42;82.21;100148.16;5043217;28;20064;-66
2022/11/07 09:11:27;;;;;;;14.55;9.55;;;;;;;4.44;81.89;100135.34;5030262;28;20033;-65
2022/11/07 09:13:54;;;;;;;11.27;9.07;;;;;;;4.49;82.28;100149.94;5048372;28;20053;-65
2022/11/07 09:16:21;;;;;;;10.93;8.82;;;;;;;4.45;81.78;100143.06;5053227;28;20051;-66
2022/11/07 09:18:48;;;;;;;13.82;10.85;;;;;;;4.53;81.88;100144.84;5054686;28;20063;-65
2022/11/07 09:21:14;;;;;;;14.57;10.10;;;;;;;4.45;82.00;100135.38;5052786;28;20021;-66
2022/11/07 09:23:42;;;;;;;13.52;10.93;;;;;;;4.49;81.93;100137.13;5057135;28;20237;-64
2022/11/07 09:26:08;;;;;;;14.13;9.35;;;;;;;4.45;82.05;100131.97;5052789;28;20018;-64
2022/11/07 09:28:34;;;;;;;11.43;9.27;;;;;;;4.47;81.46;100125.97;5037126;28;20026;-65
2022/11/07 09:31:01;;;;;;;14.18;9.93;;;;;;;4.55;82.48;100136.34;5025671;28;20026;-65
2022/11/07 09:33:28;;;;;;;12.45;9.23;;;;;;;4.53;81.49;100140.56;5043658;28;20029;-66
2022/11/07 09:35:57;;;;;;;13.60;9.95;;;;;;;4.48;82.68;100129.41;5039161;28;20331;-63
2022/11/07 09:38:23;;;;;;;12.80;10.75;;;;;;;4.55;81.74;100132.91;5036750;28;20254;-65
2022/11/07 09:41:25;;;;;;;14.40;10.13;;;;;;;4.54;81.70;100132.03;5043589;28;20048;-64
2022/11/07 09:44:16;;;;;;;12.82;9.80;;;;;;;4.49;81.75;100124.31;5042195;28;20041;-64
2022/11/07 09:47:06;;;;;;;14.60;10.40;;;;;;;4.49;80.94;100124.31;5036036;28;20360;-64
2022/11/07 09:49:37;;;;;;;17.33;10.68;;;;;;;4.56;81.55;100109.84;5037266;28;20348;-64
2022/11/07 09:52:22;;;;;;;14.25;10.30;;;;;;;4.78;81.61;100121.16;5041542;28;20040;-65
2022/11/07 09:55:00;;;;;;;13.63;10.75;;;;;;;4.82;81.35;100109.22;5034531;28;20322;-64
2022/11/07 09:57:29;;;;;;;13.40;9.85;;;;;;;4.90;81.34;100110.13;5023432;28;20088;-66
2022/11/07 10:00:04;;;;;;;15.98;10.55;;;;;;;4.89;81.01;100113.56;5039431;28;20033;-64
2022/11/07 10:02:36;;;;;;;14.00;10.05;;;;;;;4.95;80.73;100110.19;5028275;28;20018;-65
2022/11/07 10:05:03;;;;;;;15.75;11.40;;;;;;;5.01;80.65;100115.38;5033586;28;20048;-64
2022/11/07 10:07:35;;;;;;;13.93;10.18;;;;;;;5.05;81.10;100113.69;5037619;28;20334;-65
2022/11/07 10:10:21;;;;;;;14.25;11.23;;;;;;;5.02;80.83;100106.81;5025092;28;20341;-65
2022/11/07 10:13:03;;;;;;;17.13;10.57;;;;;;;5.01;80.33;100110.22;5042947;28;20025;-64
2022/11/07 10:16:02;;;;;;;13.02;10.18;;;;;;;5.11;80.61;100118.88;5030718;28;20021;-65
2022/11/07 10:18:56;;;;;;;13.45;10.38;;;;;;;5.03;80.32;100111.13;5022965;28;20037;-64
2022/11/07 10:21:36;;;;;;;13.80;11.38;;;;;;;4.88;81.04;100091.31;5023272;28;20076;-65
2022/11/07 10:24:29;;;;;;;15.20;10.40;;;;;;;4.93;80.86;100110.19;5056316;28;20190;-65
2022/11/07 10:26:56;;;;;;;14.07;10.32;;;;;;;4.85;80.43;100109.25;5045301;28;20029;-64
2022/11/07 10:29:27;;;;;;;13.05;10.80;;;;;;;4.86;81.34;100108.41;5041909;28;20128;-64
2022/11/07 10:32:08;;;;;;;15.77;11.38;;;;;;;4.84;80.87;100102.38;5042843;28;20096;-64
2022/11/07 10:34:37;;;;;;;17.52;11.60;;;;;;;4.64;81.35;100097.09;5036742;28;20321;-64
2022/11/07 10:37:03;;;;;;;14.63;11.52;;;;;;;4.80;81.36;100108.34;5036745;28;20029;-64
2022/11/07 10:39:30;;;;;;;16.50;11.35;;;;;;;4.80;81.52;100108.34;5042698;28;20029;-64
2022/11/07 10:42:21;;;;;;;16.63;11.32;;;;;;;4.94;81.48;100099.03;5025768;28;20030;-64
2022/11/07 10:44:47;;;;;;;17.92;13.23;;;;;;;4.91;81.21;100101.59;5038116;28;20227;-64
2022/11/07 10:47:22;;;;;;;16.92;12.05;;;;;;;4.81;81.15;100082.69;5038266;28;20095;-64
2022/11/07 10:50:04;;;;;;;19.15;12.88;;;;;;;4.83;81.30;100078.44;5042636;28;20145;-66
2022/11/07 10:52:29;;;;;;;16.83;11.93;;;;;;;4.82;81.92;100101.53;5036104;28;20226;-66
2022/11/07 10:55:15;;;;;;;17.55;12.60;;;;;;;4.76;81.60;100094.63;5022504;28;20021;-65
2022/11/07 10:57:42;;;;;;;18.52;12.38;;;;;;;4.75;81.46;100092.06;5042775;28;20029;-65
2022/11/07 11:00:26;;;;;;;15.73;11.85;;;;;;;4.77;81.76;100104.03;5042724;28;20086;-65
2022/11/07 11:02:53;;;;;;;18.85;12.82;;;;;;;4.73;81.29;100092.06;5025516;28;20037;-64
2022/11/07 11:05:29;;;;;;;16.30;12.57;;;;;;;4.61;81.80;100095.34;5038650;28;20067;-64
2022/11/07 11:08:06;;;;;;;16.42;12.02;;;;;;;4.71;81.84;100077.47;5038572;28;20021;-64
2022/11/07 11:10:37;;;;;;;17.48;13.25;;;;;;;4.64;81.50;100097.09;5024615;28;20344;-63
2022/11/07 11:13:04;;;;;;;18.35;13.27;;;;;;;4.62;82.43;100099.63;5037738;28;20177;-64
2022/11/07 11:15:30;;;;;;;17.80;12.40;;;;;;;4.60;82.99;100100.47;5024450;28;20034;-64
2022/11/07 11:18:01;;;;;;;16.52;12.70;;;;;;;4.46;82.59;100082.38;5023138;28;20071;-64
2022/11/07 11:20:35;;;;;;;16.20;13.30;;;;;;;4.51;82.75;100098.66;5035479;28;20029;-64
2022/11/07 11:23:04;;;;;;;19.02;13.50;;;;;;;4.57;82.98;100101.28;5045219;28;20213;-64
2022/11/07 11:25:30;;;;;;;18.40;13.02;;;;;;;4.57;82.99;100096.16;5044086;28;20030;-64
2022/11/07 11:28:08;;;;;;;19.27;14.02;;;;;;;4.45;83.58;100083.22;5022933;28;20321;-65
2022/11/07 11:30:35;;;;;;;17.17;13.05;;;;;;;4.55;83.02;100091.88;5043873;28;20037;-64
2022/11/07 11:33:14;;;;;;;19.95;13.60;;;;;;;4.60;82.91;100090.19;5027578;28;20099;-64
2022/11/07 11:35:46;;;;;;;18.10;13.57;;;;;;;4.49;83.04;100075.56;5041424;28;20033;-65
2022/11/07 11:38:29;;;;;;;20.95;14.48;;;;;;;4.50;83.41;100099.50;5039461;28;20040;-64